Red Springs, North Carolina
Current Conditions -  °F | °C
As of 1:52 AM on Thursday 27 Nov 2014 (Local Time) from KMEB Reporting Station
Clear Clear  
Wind Chill:   Ceiling: Unl
Heat Index:   Visibility: 10mi
Dew Point:   Wind: 7mph
Humidity: 96%   Direction: 180°S
Pressure: 30.07"   Gusts: NA
Location:  34.82°N, 79.18°W
Report Text: KMEB 270652Z AUTO 18006KT 10SM CLR 05/04 A3007 RMK AO2 SLP181 T00500044
Loading
Personal Weather Stations






























Interactive Weather Map New forecast layout! Learn more

10-Day Weather Forecast

Advertisements
Track Severe Weather on mobile